Time;durP1;ratioP1;P1;durP2;ratioP2;P2;SDS_P1;SDS_P2;PMS_P1;PMS_P2;Temp;Humidity;BMP_temperature;BMP_pressure;BME280_temperature;BME280_humidity;BME280_pressure;Samples;Min_cycle;Max_cycle;Signal;HPM_P1;HPM_P2
2021/11/29 00:01:51;;;;;;;;;18.25;14.25;;;;;1.78;89.59;99810.75;5016336;28;45440;-69
2021/11/29 00:04:16;;;;;;;;;22.00;16.00;;;;;1.77;90.00;99809.03;5013373;28;45319;-73
2021/11/29 00:06:41;;;;;;;;;16.00;15.75;;;;;1.78;90.05;99819.38;5012294;28;45389;-71
2021/11/29 00:09:07;;;;;;;;;20.00;14.50;;;;;1.75;89.65;99809.03;5012431;28;47999;-77
2021/11/29 00:11:32;;;;;;;;;20.50;15.00;;;;;1.74;90.33;99809.94;5013742;28;45340;-70
2021/11/29 00:13:58;;;;;;;;;18.00;15.00;;;;;1.74;90.17;99809.94;5012195;28;45336;-68
2021/11/29 00:16:23;;;;;;;;;14.00;13.25;;;;;1.71;90.25;99809.97;5016562;28;45540;-71
2021/11/29 00:18:49;;;;;;;;;18.75;15.75;;;;;1.71;90.32;99810.84;5015205;28;46052;-71
2021/11/29 00:21:14;;;;;;;;;18.75;14.25;;;;;1.72;90.87;99816.88;5020639;28;45288;-71
2021/11/29 00:23:41;;;;;;;;;15.00;12.25;;;;;1.72;90.46;99814.28;5018399;28;45274;-67
2021/11/29 00:26:07;;;;;;;;;19.00;14.25;;;;;1.68;90.46;99810.91;5018406;28;45519;-72
2021/11/29 00:28:33;;;;;;;;;19.50;15.50;;;;;1.70;91.13;99816.03;5019114;28;46286;-69
2021/11/29 00:30:58;;;;;;;;;12.75;11.25;;;;;1.70;90.89;99819.50;5015811;28;45329;-67
2021/11/29 00:33:23;;;;;;;;;18.50;14.25;;;;;1.67;91.18;99816.97;5020556;28;45267;-72
2021/11/29 00:35:49;;;;;;;;;14.50;13.00;;;;;1.66;91.12;99814.38;5018887;28;45566;-72
2021/11/29 00:38:15;;;;;;;;;15.00;14.00;;;;;1.71;91.06;99822.94;5016413;28;46341;-73
2021/11/29 00:40:41;;;;;;;;;16.25;16.25;;;;;1.71;91.03;99825.53;5016312;28;45311;-70
2021/11/29 00:43:07;;;;;;;;;21.50;15.75;;;;;1.71;91.23;99828.13;5015683;28;45480;-71
2021/11/29 00:45:32;;;;;;;;;19.00;15.75;;;;;1.70;91.17;99829.00;5015265;28;45304;-72
2021/11/29 00:47:58;;;;;;;;;15.75;15.75;;;;;1.69;91.17;99819.53;5014723;28;46305;-72
2021/11/29 00:50:23;;;;;;;;;16.00;15.50;;;;;1.62;91.23;99815.31;5013815;28;46017;-73
2021/11/29 00:52:49;;;;;;;;;21.75;15.75;;;;;1.67;91.36;99834.25;5015979;28;45399;-71
2021/11/29 00:55:17;;;;;;;;;19.75;14.00;;;;;1.67;91.38;99837.72;5017312;28;45465;-70
2021/11/29 00:57:43;;;;;;;;;18.75;16.00;;;;;1.66;90.57;99850.69;5014993;28;46492;-71
2021/11/29 01:00:15;;;;;;;;;17.00;13.50;;;;;1.65;91.51;99842.06;5014792;28;45234;-69
2021/11/29 01:02:41;;;;;;;;;16.75;13.75;;;;;1.63;91.30;99850.72;5030259;28;45292;-71
2021/11/29 01:05:08;;;;;;;;;13.25;13.00;;;;;1.60;91.09;99852.47;5015684;28;45248;-70
2021/11/29 01:07:33;;;;;;;;;13.50;13.25;;;;;1.60;91.06;99855.06;5016149;28;46678;-69
2021/11/29 01:09:59;;;;;;;;;16.00;12.50;;;;;1.58;91.26;99848.19;5016181;28;45321;-66
2021/11/29 01:12:25;;;;;;;;;16.25;15.00;;;;;1.59;91.76;99861.13;5014714;28;45352;-68
2021/11/29 01:14:50;;;;;;;;;16.00;13.75;;;;;1.60;91.63;99874.97;5016049;28;45483;-70
2021/11/29 01:17:16;;;;;;;;;20.25;18.25;;;;;1.58;90.82;99864.63;5015615;28;46220;-67
2021/11/29 01:19:41;;;;;;;;;19.25;15.00;;;;;1.56;91.44;99870.69;5016732;28;45559;-72
2021/11/29 01:22:06;;;;;;;;;16.00;14.50;;;;;1.49;91.97;99859.56;5016560;28;45467;-71
2021/11/29 01:24:32;;;;;;;;;20.25;17.00;;;;;1.16;91.37;99807.34;5015972;28;45639;-72
2021/11/29 01:26:58;;;;;;;;;19.75;17.50;;;;;1.56;91.46;99871.56;5015326;28;45472;-70
2021/11/29 01:29:23;;;;;;;;;22.00;18.50;;;;;1.44;91.35;99857.03;5015302;28;45389;-72
2021/11/29 01:31:49;;;;;;;;;23.25;19.50;;;;;1.53;91.37;99868.13;5014488;28;45378;-68
2021/11/29 01:34:15;;;;;;;;;18.25;16.50;;;;;1.44;91.20;99862.22;5015729;28;45357;-72
2021/11/29 01:36:41;;;;;;;;;18.75;16.00;;;;;1.51;91.88;99875.06;5014601;28;45393;-70
2021/11/29 01:39:08;;;;;;;;;17.00;15.00;;;;;1.55;91.35;99881.94;5014551;28;45250;-70
2021/11/29 01:41:33;;;;;;;;;17.50;16.00;;;;;1.56;91.76;99887.13;5014748;28;45408;-71
2021/11/29 01:43:59;;;;;;;;;21.50;19.00;;;;;1.44;91.38;99875.16;5014995;28;45273;-73
2021/11/29 01:46:25;;;;;;;;;20.75;17.25;;;;;1.54;91.57;99883.69;5013879;27;46298;-69
2021/11/29 01:48:51;;;;;;;;;14.00;13.50;;;;;1.51;91.93;99888.91;5014929;28;45341;-71
2021/11/29 01:51:16;;;;;;;;;20.75;18.50;;;;;1.50;91.72;99887.19;5014841;28;45423;-71
2021/11/29 01:53:42;;;;;;;;;20.00;18.00;;;;;1.48;91.97;99890.69;5015099;28;45263;-70
2021/11/29 01:56:08;;;;;;;;;23.50;16.25;;;;;1.35;91.78;99875.28;5014065;28;45373;-71
2021/11/29 01:58:37;;;;;;;;;14.75;14.75;;;;;1.43;91.27;99894.19;5014994;28;45333;-72
2021/11/29 02:01:10;;;;;;;;;16.00;13.50;;;;;1.44;92.04;99897.66;5016604;28;45361;-69
2021/11/29 02:03:37;;;;;;;;;15.75;11.50;;;;;1.45;91.85;99900.22;5018104;28;44818;-69
2021/11/29 02:06:03;;;;;;;;;19.00;14.75;;;;;1.44;91.51;99906.28;5018463;28;45234;-72
2021/11/29 02:08:28;;;;;;;;;21.50;15.25;;;;;1.45;91.68;99901.97;5017163;28;45278;-70
2021/11/29 02:10:53;;;;;;;;;16.75;12.50;;;;;1.45;92.01;99899.38;5016275;27;45211;-71
2021/11/29 02:13:20;;;;;;;;;17.75;14.00;;;;;1.44;92.75;99903.69;5017710;28;45581;-69
2021/11/29 02:15:51;;;;;;;;;15.50;12.25;;;;;1.43;91.76;99904.56;5017315;28;46198;-71
2021/11/29 02:18:21;;;;;;;;;17.25;13.00;;;;;1.45;92.48;99909.72;5016924;28;45192;-72
2021/11/29 02:21:09;;;;;;;;;12.00;9.50;;;;;1.41;92.14;99903.72;5017649;28;45411;-71
2021/11/29 02:23:45;;;;;;;;;15.25;8.75;;;;;1.46;92.11;99911.44;5016881;28;45420;-71
2021/11/29 02:26:12;;;;;;;;;13.00;8.75;;;;;1.44;91.57;99927.00;5015534;28;45408;-71
2021/11/29 02:28:40;;;;;;;;;13.00;12.50;;;;;1.44;92.18;99921.81;5013745;28;45252;-72
2021/11/29 02:31:09;;;;;;;;;14.25;13.00;;;;;1.44;92.69;99929.59;5012858;28;45297;-70
2021/11/29 02:33:34;;;;;;;;;15.75;12.00;;;;;1.43;92.18;99920.09;5014155;28;45490;-72
2021/11/29 02:36:00;;;;;;;;;13.00;11.75;;;;;1.45;92.17;99930.47;5014123;28;45617;-71
2021/11/29 02:38:26;;;;;;;;;15.25;11.75;;;;;1.32;92.24;99903.84;5016114;28;45403;-70
2021/11/29 02:40:51;;;;;;;;;11.00;10.75;;;;;1.28;92.05;99903.03;5014388;28;45366;-68
2021/11/29 02:43:17;;;;;;;;;12.25;9.75;;;;;1.41;92.28;99926.19;5019793;28;45514;-71
2021/11/29 02:45:43;;;;;;;;;13.50;10.25;;;;;1.41;92.21;99929.63;5025447;28;46141;-67
2021/11/29 02:48:08;;;;;;;;;15.75;13.50;;;;;1.42;92.02;99933.09;5014820;28;45354;-68
2021/11/29 02:50:36;;;;;;;;;15.25;12.00;;;;;1.40;92.47;99934.84;5016714;28;45346;-67
2021/11/29 02:53:05;;;;;;;;;13.75;11.75;;;;;1.41;92.14;99939.16;5015237;28;45545;-69
2021/11/29 02:55:30;;;;;;;;;12.00;8.00;;;;;1.42;92.14;99931.34;5014483;28;45409;-69
2021/11/29 02:57:55;;;;;;;;;12.00;8.00;;;;;1.41;92.10;99941.75;5013377;28;45432;-71
2021/11/29 03:00:21;;;;;;;;;13.00;9.25;;;;;1.38;91.90;99936.59;5012965;27;45499;-72
2021/11/29 03:03:08;;;;;;;;;10.25;8.75;;;;;1.40;91.94;99953.00;5016985;28;45274;-72
2021/11/29 03:05:35;;;;;;;;;14.00;11.75;;;;;1.38;92.00;99954.75;5015190;28;46267;-71
2021/11/29 03:08:00;;;;;;;;;13.25;11.25;;;;;1.31;92.07;99952.22;5014614;28;45133;-72
2021/11/29 03:10:26;;;;;;;;;14.00;10.50;;;;;1.36;92.41;99961.69;5012611;28;45217;-68
2021/11/29 03:12:52;;;;;;;;;14.25;9.00;;;;;1.36;92.48;99962.53;5014443;28;45393;-73
2021/11/29 03:15:17;;;;;;;;;10.00;8.00;;;;;1.35;93.09;99962.56;5013827;28;45363;-69
2021/11/29 03:17:42;;;;;;;;;13.75;12.25;;;;;1.29;91.94;99955.69;5012856;28;45883;-70
2021/11/29 03:20:12;;;;;;;;;11.75;10.25;;;;;1.33;92.37;99970.34;5015048;28;45409;-70
2021/11/29 03:22:38;;;;;;;;;8.00;8.00;;;;;1.32;92.42;99971.22;5015952;28;45413;-68
2021/11/29 03:25:05;;;;;;;;;13.75;12.00;;;;;1.32;92.15;99973.81;5013954;28;45494;-69
2021/11/29 03:27:30;;;;;;;;;9.25;7.75;;;;;1.31;92.45;99980.75;5013537;28;45173;-68
2021/11/29 03:29:56;;;;;;;;;11.00;11.00;;;;;1.29;92.38;99977.31;5012807;28;45410;-72
2021/11/29 03:32:22;;;;;;;;;13.75;12.00;;;;;1.28;92.65;99985.97;5014689;28;45535;-72
2021/11/29 03:34:49;;;;;;;;;3.25;3.00;;;;;1.26;93.02;99985.13;5014571;28;45356;-71
2021/11/29 03:37:15;;;;;;;;;8.00;6.50;;;;;1.24;92.33;99993.78;5013874;28;45342;-72
2021/11/29 03:39:40;;;;;;;;;13.00;11.00;;;;;1.25;92.68;99993.75;5013741;28;45524;-72
2021/11/29 03:42:06;;;;;;;;;12.00;8.75;;;;;1.26;93.10;99999.78;5014059;28;45526;-68
2021/11/29 03:44:36;;;;;;;;;12.75;12.50;;;;;1.14;92.53;99983.50;5012751;28;46000;-70
2021/11/29 03:47:03;;;;;;;;;16.50;12.75;;;;;1.22;92.92;100003.28;5012991;28;45447;-71
2021/11/29 03:49:29;;;;;;;;;9.00;8.00;;;;;1.25;93.06;100011.03;5013783;28;45292;-72
2021/11/29 03:51:55;;;;;;;;;12.00;10.50;;;;;1.26;93.10;100023.13;5016700;28;45348;-72
2021/11/29 03:54:21;;;;;;;;;10.25;9.00;;;;;1.25;92.88;100014.50;5015562;28;46413;-71
2021/11/29 03:56:46;;;;;;;;;11.75;10.00;;;;;1.26;92.93;100015.34;5013279;27;45289;-72
2021/11/29 03:59:12;;;;;;;;;11.75;9.75;;;;;1.33;93.14;100029.94;5013207;28;45242;-70
2021/11/29 04:01:37;;;;;;;;;14.75;10.25;;;;;1.35;93.02;100029.94;5013478;27;45358;-69
2021/11/29 04:04:04;;;;;;;;;10.25;7.75;;;;;1.39;93.06;100034.22;5012935;28;45952;-69
2021/11/29 04:06:30;;;;;;;;;10.75;10.75;;;;;1.41;93.23;100029.88;5011536;27;45286;-68
2021/11/29 04:08:56;;;;;;;;;9.00;9.00;;;;;1.41;92.45;100033.31;5013294;28;45268;-68
2021/11/29 04:11:22;;;;;;;;;14.50;10.25;;;;;1.41;92.39;100035.91;5013238;28;45478;-72
2021/11/29 04:13:47;;;;;;;;;8.50;7.75;;;;;1.37;92.75;100033.38;5012773;28;46241;-68
2021/11/29 04:16:13;;;;;;;;;13.25;10.50;;;;;1.33;92.59;100032.53;5012892;28;45471;-70
2021/11/29 04:18:41;;;;;;;;;10.75;10.75;;;;;1.31;92.78;100036.88;5015654;28;45440;-70
2021/11/29 04:21:06;;;;;;;;;8.25;7.00;;;;;1.31;93.02;100037.75;5017043;28;45381;-70
2021/11/29 04:23:32;;;;;;;;;6.25;6.25;;;;;1.31;93.26;100042.06;5015140;28;45685;-72
2021/11/29 04:26:00;;;;;;;;;13.00;8.50;;;;;1.30;93.36;100048.13;5015144;28;45246;-68
2021/11/29 04:28:26;;;;;;;;;14.75;12.75;;;;;1.26;92.96;100051.63;5012393;28;45257;-71
2021/11/29 04:30:52;;;;;;;;;7.00;6.00;;;;;1.27;93.35;100050.75;5011320;27;45403;-69
2021/11/29 04:33:17;;;;;;;;;9.25;7.75;;;;;1.25;93.66;100050.78;5012716;28;45856;-70
2021/11/29 04:35:43;;;;;;;;;11.00;9.00;;;;;1.18;93.73;100051.72;5010832;27;45352;-71
2021/11/29 04:38:08;;;;;;;;;13.00;9.00;;;;;1.02;93.89;100032.84;5012417;28;45316;-72
2021/11/29 04:40:34;;;;;;;;;9.00;7.75;;;;;1.22;93.96;100062.88;5012890;27;45612;-70
2021/11/29 04:43:00;;;;;;;;;11.75;8.00;;;;;0.99;93.48;100033.72;5012048;28;45364;-71
2021/11/29 04:45:26;;;;;;;;;11.25;10.00;;;;;1.22;93.78;100068.06;5013475;28;45309;-69
2021/11/29 04:47:51;;;;;;;;;8.75;8.75;;;;;1.25;93.56;100068.91;5013046;28;45351;-73
2021/11/29 04:50:17;;;;;;;;;12.00;9.00;;;;;1.21;93.80;100063.75;5013844;28;45357;-72
2021/11/29 04:52:44;;;;;;;;;13.75;11.00;;;;;1.24;93.85;100076.69;5011981;28;46053;-66
2021/11/29 04:55:11;;;;;;;;;12.00;10.25;;;;;1.16;93.88;100075.03;5011824;28;45385;-69
2021/11/29 04:57:37;;;;;;;;;9.25;8.25;;;;;1.21;94.41;100075.00;5011993;28;45447;-72
2021/11/29 05:00:05;;;;;;;;;11.50;8.75;;;;;1.25;94.28;100089.63;5011998;28;45616;-71
2021/11/29 05:02:30;;;;;;;;;8.00;7.50;;;;;1.14;94.43;100078.53;5012243;28;46743;-68
2021/11/29 05:04:56;;;;;;;;;9.75;8.00;;;;;1.24;93.79;100093.09;5028158;28;45401;-70
2021/11/29 05:07:21;;;;;;;;;8.00;8.00;;;;;1.24;94.64;100100.88;5017825;28;45218;-73
2021/11/29 05:09:47;;;;;;;;;11.50;8.00;;;;;1.16;94.15;100100.94;5021772;28;44933;-72
2021/11/29 05:12:14;;;;;;;;;10.25;8.00;;;;;1.23;94.29;100114.72;5015817;28;45843;-72
2021/11/29 05:14:40;;;;;;;;;10.75;6.25;;;;;1.20;94.01;100111.28;5016408;28;45423;-69
2021/11/29 05:17:06;;;;;;;;;7.75;7.75;;;;;1.22;94.35;100110.41;5015412;28;45352;-72
2021/11/29 05:19:31;;;;;;;;;13.00;11.00;;;;;1.16;94.20;100111.28;5015210;28;45359;-70
2021/11/29 05:21:57;;;;;;;;;10.00;8.75;;;;;1.25;94.16;100127.63;5013894;28;46325;-72
2021/11/29 05:24:22;;;;;;;;;9.75;8.75;;;;;1.26;94.55;100137.13;5013283;28;45923;-72
2021/11/29 05:26:48;;;;;;;;;11.00;8.75;;;;;1.26;94.50;100142.31;5015067;28;45334;-72
2021/11/29 05:29:15;;;;;;;;;11.75;8.00;;;;;1.24;94.91;100129.38;5015138;28;45517;-72
2021/11/29 05:31:42;;;;;;;;;10.25;7.50;;;;;1.30;94.47;100147.47;5014784;28;46150;-67
2021/11/29 05:34:07;;;;;;;;;8.00;8.00;;;;;1.27;94.77;100142.31;5014618;28;45263;-70
2021/11/29 05:36:33;;;;;;;;;13.50;10.00;;;;;1.28;94.80;100141.44;5014654;28;45156;-71
2021/11/29 05:38:58;;;;;;;;;8.75;7.75;;;;;1.33;94.36;100159.50;5015199;28;45640;-71
2021/11/29 05:41:23;;;;;;;;;13.00;10.00;;;;;1.33;94.58;100154.34;5016183;28;45429;-72
2021/11/29 05:43:49;;;;;;;;;12.25;9.50;;;;;1.37;94.69;100155.19;5013471;28;45278;-71
2021/11/29 05:46:18;;;;;;;;;11.25;8.00;;;;;1.43;95.14;100155.13;5013330;28;45277;-70
2021/11/29 05:48:43;;;;;;;;;8.75;8.50;;;;;1.48;94.79;100163.72;5015080;28;45411;-71
2021/11/29 05:51:09;;;;;;;;;8.00;7.50;;;;;1.48;94.34;100171.50;5014148;28;45416;-71
2021/11/29 05:53:34;;;;;;;;;14.00;10.00;;;;;1.52;94.49;100174.88;5014981;28;45346;-71
2021/11/29 05:56:03;;;;;;;;;9.75;8.25;;;;;1.57;94.11;100184.34;5017184;28;45344;-72
2021/11/29 05:58:29;;;;;;;;;9.50;8.75;;;;;1.60;94.27;100194.69;5015192;28;45235;-71
2021/11/29 06:00:54;;;;;;;;;8.75;7.00;;;;;1.64;94.46;100187.78;5014000;28;45284;-69
2021/11/29 06:03:19;;;;;;;;;8.25;8.25;;;;;1.72;93.76;100192.84;5013909;28;45230;-70
2021/11/29 06:05:45;;;;;;;;;11.50;8.00;;;;;1.81;94.10;100194.53;5014033;28;45213;-70
2021/11/29 06:08:10;;;;;;;;;8.00;8.00;;;;;1.87;93.94;100181.47;5014081;28;45515;-70
2021/11/29 06:10:35;;;;;;;;;8.75;7.50;;;;;1.87;92.97;100203.06;5013700;28;45336;-67
2021/11/29 06:13:01;;;;;;;;;9.00;9.00;;;;;1.88;93.29;100202.19;5014115;28;45227;-68
2021/11/29 06:15:26;;;;;;;;;12.50;9.00;;;;;1.90;93.66;100205.63;5014172;28;45176;-71
2021/11/29 06:17:51;;;;;;;;;7.75;7.75;;;;;1.95;93.45;100208.19;5012490;28;45267;-69
2021/11/29 06:20:21;;;;;;;;;10.00;8.00;;;;;2.00;93.40;100215.91;5014127;28;46009;-69
2021/11/29 06:22:51;;;;;;;;;7.25;4.75;;;;;2.10;92.45;100224.47;5014044;28;45238;-68
2021/11/29 06:25:17;;;;;;;;;10.50;6.75;;;;;2.13;91.43;100219.25;5013961;28;45655;-70
2021/11/29 06:27:42;;;;;;;;;8.00;7.25;;;;;2.08;91.64;100208.91;5014317;28;45392;-72
2021/11/29 06:30:08;;;;;;;;;8.00;8.00;;;;;2.28;91.81;100224.25;5013506;28;45773;-70
2021/11/29 06:32:34;;;;;;;;;10.50;8.25;;;;;2.40;91.63;100238.84;5014840;28;45815;-64
2021/11/29 06:34:59;;;;;;;;;11.75;8.00;;;;;2.38;91.20;100231.94;5014265;28;45348;-69
2021/11/29 06:37:27;;;;;;;;;8.00;8.00;;;;;2.39;90.53;100231.06;5014992;28;45400;-70
2021/11/29 06:39:54;;;;;;;;;13.50;9.75;;;;;2.53;91.01;100249.06;5015512;28;45274;-72
2021/11/29 06:42:19;;;;;;;;;11.00;8.50;;;;;2.57;90.18;100259.38;5015710;28;45173;-71
2021/11/29 06:44:44;;;;;;;;;9.00;8.50;;;;;2.61;90.03;100268.00;5014089;28;45290;-70
2021/11/29 06:47:10;;;;;;;;;10.00;8.00;;;;;2.65;91.08;100268.81;5015565;28;45523;-67
2021/11/29 06:49:35;;;;;;;;;9.00;9.00;;;;;2.66;89.97;100268.81;5015421;27;46376;-68
2021/11/29 06:52:05;;;;;;;;;9.50;9.50;;;;;2.61;90.07;100262.81;5015261;28;45387;-66
2021/11/29 06:54:32;;;;;;;;;4.00;4.00;;;;;2.66;89.50;100279.19;5015129;28;45366;-70
2021/11/29 06:56:58;;;;;;;;;11.00;8.75;;;;;2.70;90.55;100293.03;5014902;28;45474;-71
2021/11/29 06:59:23;;;;;;;;;5.25;4.00;;;;;2.68;89.41;100293.03;5014875;28;45952;-70
2021/11/29 07:01:48;;;;;;;;;5.25;5.25;;;;;2.57;89.48;100280.16;5015158;28;45207;-71
2021/11/29 07:04:18;;;;;;;;;8.00;5.50;;;;;2.58;89.61;100301.81;5013369;28;45418;-71
2021/11/29 07:06:44;;;;;;;;;10.00;8.00;;;;;2.57;89.37;100315.66;5014863;28;45321;-72
2021/11/29 07:09:09;;;;;;;;;10.75;8.00;;;;;2.55;89.47;100312.22;5015619;28;45328;-73
2021/11/29 07:11:35;;;;;;;;;10.50;7.00;;;;;2.54;89.08;100319.16;5016709;28;45337;-73
2021/11/29 07:14:01;;;;;;;;;6.75;6.75;;;;;2.53;88.81;100329.56;5063898;27;45761;-68
2021/11/29 07:16:27;;;;;;;;;10.25;7.00;;;;;2.51;89.25;100326.13;5071234;27;45261;-70
2021/11/29 07:18:52;;;;;;;;;13.75;7.25;;;;;2.45;89.87;100330.50;5026404;27;46208;-71
2021/11/29 07:21:17;;;;;;;;;5.50;5.25;;;;;2.43;89.79;100332.25;5032923;27;45328;-71
2021/11/29 07:23:43;;;;;;;;;10.50;9.00;;;;;2.39;90.18;100334.91;5034409;27;45360;-70
2021/11/29 07:26:08;;;;;;;;;7.25;7.25;;;;;2.44;89.94;100343.50;5052259;27;45354;-69
2021/11/29 07:28:34;;;;;;;;;7.75;7.75;;;;;2.46;89.25;100354.72;5109611;27;45412;-69
2021/11/29 07:30:59;;;;;;;;;12.75;10.50;;;;;2.50;90.12;100363.34;5035775;27;45784;-68
2021/11/29 07:33:25;;;;;;;;;9.00;7.75;;;;;2.59;89.98;100363.25;5079913;27;45320;-68
2021/11/29 07:35:50;;;;;;;;;10.75;9.00;;;;;2.62;89.18;100363.22;5101784;27;45292;-71
2021/11/29 07:38:16;;;;;;;;;5.00;2.50;;;;;2.56;89.22;100352.91;5083493;27;46189;-70
2021/11/29 07:40:41;;;;;;;;;10.00;9.00;;;;;2.57;89.66;100359.81;5075492;27;45390;-69
2021/11/29 07:43:10;;;;;;;;;10.00;9.00;;;;;2.51;88.53;100359.88;5083790;27;45404;-68
2021/11/29 07:45:37;;;;;;;;;8.75;8.75;;;;;2.47;88.45;100370.31;5059018;27;45671;-70
2021/11/29 07:48:03;;;;;;;;;20.25;11.75;;;;;2.42;89.80;100371.22;5090229;27;46218;-70
2021/11/29 07:50:29;;;;;;;;;7.75;7.00;;;;;2.43;88.80;100372.94;5011865;27;45480;-67
2021/11/29 07:52:55;;;;;;;;;10.00;10.00;;;;;2.37;89.36;100371.28;5077285;27;45530;-70
2021/11/29 07:55:24;;;;;;;;;12.75;10.25;;;;;2.42;90.25;100376.41;5044373;27;45433;-77
2021/11/29 07:57:51;;;;;;;;;8.75;8.75;;;;;2.39;89.83;100361.72;5034344;27;45364;-77
2021/11/29 08:00:21;;;;;;;;;9.50;9.50;;;;;2.42;89.55;100366.00;5060470;27;46021;-76
2021/11/29 08:02:51;;;;;;;;;17.75;12.25;;;;;2.32;89.63;100339.31;5018043;27;45430;-72
2021/11/29 08:05:20;;;;;;;;;14.75;11.75;;;;;2.53;89.83;100378.91;5027908;27;45500;-71
2021/11/29 08:07:45;;;;;;;;;13.25;9.75;;;;;2.52;90.22;100374.59;5017318;28;45385;-66
2021/11/29 08:10:11;;;;;;;;;17.25;13.25;;;;;2.59;89.84;100379.69;5026056;27;44826;-73
2021/11/29 08:12:37;;;;;;;;;11.50;9.25;;;;;2.71;90.50;100389.09;5014920;28;45572;-71
2021/11/29 08:15:03;;;;;;;;;16.00;11.00;;;;;2.82;89.15;100395.91;5014107;27;45327;-70
2021/11/29 08:17:28;;;;;;;;;12.50;11.00;;;;;2.94;89.82;100411.34;5013843;28;45396;-73
2021/11/29 08:19:54;;;;;;;;;10.50;9.50;;;;;3.02;88.64;100414.72;5012648;28;45428;-71
2021/11/29 08:22:19;;;;;;;;;12.50;10.50;;;;;3.09;87.50;100428.53;5035194;27;45365;-68
2021/11/29 08:24:45;;;;;;;;;12.75;9.25;;;;;3.05;88.92;100406.88;5012163;28;45325;-71
2021/11/29 08:27:11;;;;;;;;;12.00;12.00;;;;;3.22;88.36;100424.03;5007400;28;47923;-70
2021/11/29 08:29:37;;;;;;;;;15.75;11.25;;;;;3.26;88.36;100427.44;5010114;28;45381;-71
2021/11/29 08:32:02;;;;;;;;;17.75;11.25;;;;;3.23;87.64;100420.56;5010038;28;45627;-71
2021/11/29 08:34:28;;;;;;;;;9.75;9.75;;;;;3.24;86.66;100424.88;5009985;28;45471;-72
2021/11/29 08:36:53;;;;;;;;;21.50;16.75;;;;;3.23;87.34;100428.38;5012157;28;45252;-71
2021/11/29 08:39:19;;;;;;;;;15.25;12.50;;;;;3.09;87.40;100405.13;5013272;28;45284;-72
2021/11/29 08:41:44;;;;;;;;;12.25;11.50;;;;;3.20;86.74;100441.41;5014267;28;45479;-70
2021/11/29 08:44:11;;;;;;;;;17.50;11.75;;;;;3.09;87.67;100438.91;5015809;28;45903;-66
2021/11/29 08:46:37;;;;;;;;;18.50;12.00;;;;;2.99;87.24;100432.94;5015886;28;47194;-71
2021/11/29 08:49:03;;;;;;;;;13.25;9.75;;;;;2.81;87.97;100426.22;5015677;28;45444;-73
2021/11/29 08:51:30;;;;;;;;;14.00;11.75;;;;;2.87;88.04;100446.06;5015596;28;45314;-72
2021/11/29 08:53:56;;;;;;;;;13.00;11.00;;;;;2.81;87.81;100439.22;5015814;28;45350;-74
2021/11/29 08:56:21;;;;;;;;;11.75;10.00;;;;;2.81;88.59;100446.13;5015566;28;46711;-72
2021/11/29 08:58:46;;;;;;;;;10.50;10.00;;;;;2.77;88.06;100440.13;5016605;28;45416;-72
2021/11/29 09:01:12;;;;;;;;;18.25;10.75;;;;;2.74;89.19;100441.00;5013862;28;45271;-71
2021/11/29 09:03:38;;;;;;;;;15.50;9.50;;;;;2.73;87.91;100441.03;5015684;28;45302;-73
2021/11/29 09:06:05;;;;;;;;;12.25;10.50;;;;;2.71;88.12;100443.63;5015390;28;46347;-69
2021/11/29 09:08:31;;;;;;;;;18.25;13.75;;;;;2.71;88.74;100455.78;5013592;28;45423;-70
2021/11/29 09:10:58;;;;;;;;;16.50;11.50;;;;;2.70;88.97;100454.91;5015207;28;45477;-70
2021/11/29 09:13:24;;;;;;;;;13.50;13.50;;;;;2.70;89.30;100460.09;5015587;28;45549;-73
2021/11/29 09:15:50;;;;;;;;;15.25;11.75;;;;;2.73;89.22;100467.03;5015765;28;46069;-71
2021/11/29 09:18:15;;;;;;;;;17.00;12.00;;;;;2.73;88.59;100473.06;5015146;28;45293;-71
2021/11/29 09:20:41;;;;;;;;;19.50;11.25;;;;;2.69;88.84;100473.97;5013541;28;45461;-70
2021/11/29 09:23:11;;;;;;;;;15.75;14.00;;;;;2.75;88.69;100475.66;5015402;28;45439;-70
2021/11/29 09:25:41;;;;;;;;;13.00;11.00;;;;;2.75;89.25;100486.03;5013640;27;47250;-70
2021/11/29 09:28:08;;;;;;;;;19.00;15.25;;;;;2.73;88.15;100486.03;5015258;28;45304;-71
2021/11/29 09:30:33;;;;;;;;;13.25;10.50;;;;;2.70;88.95;100486.06;5014630;28;45240;-66
2021/11/29 09:32:59;;;;;;;;;16.00;14.00;;;;;2.72;89.13;100494.72;5013609;28;45236;-72
2021/11/29 09:35:24;;;;;;;;;17.25;15.25;;;;;2.75;88.45;100497.28;5013021;28;47125;-71
2021/11/29 09:37:50;;;;;;;;;15.00;14.00;;;;;2.63;89.07;100479.22;5014305;28;45259;-70
2021/11/29 09:40:20;;;;;;;;;20.50;16.00;;;;;2.77;89.06;100497.28;5015277;28;45349;-69
2021/11/29 09:42:46;;;;;;;;;16.25;13.00;;;;;2.85;88.91;100508.47;5015372;28;45485;-69
2021/11/29 09:45:15;;;;;;;;;16.75;13.50;;;;;2.88;88.87;100513.63;5015097;28;45977;-71
2021/11/29 09:47:41;;;;;;;;;9.50;9.50;;;;;2.89;88.27;100514.47;5015429;28;45454;-68
2021/11/29 09:50:08;;;;;;;;;18.50;16.00;;;;;2.90;87.90;100514.47;5015680;28;45401;-72
2021/11/29 09:52:34;;;;;;;;;20.50;17.25;;;;;2.95;88.97;100517.00;5013577;28;45334;-73
2021/11/29 09:55:00;;;;;;;;;18.75;18.25;;;;;3.00;88.61;100524.78;5023181;28;46509;-71
2021/11/29 09:57:25;;;;;;;;;28.25;19.25;;;;;3.06;88.85;100533.34;5021021;28;45463;-71
2021/11/29 09:59:51;;;;;;;;;17.75;16.25;;;;;3.09;88.40;100523.81;5014677;28;45497;-72
2021/11/29 10:02:16;;;;;;;;;22.50;16.75;;;;;3.15;88.42;100541.94;5014801;28;45481;-66
2021/11/29 10:04:48;;;;;;;;;15.25;13.75;;;;;3.11;87.43;100529.84;5014891;28;46756;-75
2021/11/29 10:07:30;;;;;;;;;20.75;16.50;;;;;3.22;87.72;100535.81;5015762;28;45400;-71
2021/11/29 10:09:56;;;;;;;;;22.50;16.00;;;;;3.25;87.60;100532.31;5015169;27;45443;-70
2021/11/29 10:12:27;;;;;;;;;21.25;19.75;;;;;3.31;87.40;100533.13;5014651;28;45540;-71
2021/11/29 10:15:28;;;;;;;;;23.00;18.00;;;;;3.34;86.88;100538.28;5013861;28;46869;-71
2021/11/29 10:18:07;;;;;;;;;26.50;18.75;;;;;3.41;86.95;100538.22;5015558;28;45367;-72
2021/11/29 10:20:50;;;;;;;;;23.50;18.25;;;;;3.48;87.02;100537.28;5014792;28;45345;-69
2021/11/29 10:23:23;;;;;;;;;17.75;15.00;;;;;3.54;87.35;100547.59;5014874;28;45426;-68
2021/11/29 10:25:48;;;;;;;;;16.00;15.00;;;;;3.58;87.13;100536.28;5015039;27;47964;-70
2021/11/29 10:28:41;;;;;;;;;25.50;18.75;;;;;3.63;86.96;100541.41;5015093;28;45422;-70
2021/11/29 10:31:09;;;;;;;;;21.00;18.50;;;;;3.67;86.43;100542.25;5013080;27;45378;-71
2021/11/29 10:34:05;;;;;;;;;14.50;11.75;;;;;3.66;85.75;100536.19;5014404;28;45657;-65
2021/11/29 10:36:39;;;;;;;;;22.25;18.00;;;;;3.68;85.54;100533.56;5013977;28;45483;-72
2021/11/29 10:39:11;;;;;;;;;21.00;18.25;;;;;3.65;86.48;100535.31;5013618;28;45394;-71
2021/11/29 10:41:42;;;;;;;;;22.50;19.00;;;;;3.71;86.23;100531.81;5014045;28;45326;-70
2021/11/29 10:44:11;;;;;;;;;19.50;18.75;;;;;3.80;86.09;100543.81;5016372;28;45221;-67
2021/11/29 10:46:41;;;;;;;;;27.00;20.00;;;;;3.64;85.41;100501.50;5014574;28;45408;-68
2021/11/29 10:49:13;;;;;;;;;21.50;17.50;;;;;3.87;86.33;100537.66;5014681;28;45324;-71
2021/11/29 10:51:41;;;;;;;;;24.00;21.25;;;;;3.93;85.61;100544.53;5013825;27;45385;-69
2021/11/29 10:54:09;;;;;;;;;14.50;14.00;;;;;3.94;85.45;100547.09;5013958;28;45572;-72
2021/11/29 10:56:37;;;;;;;;;19.00;18.25;;;;;3.99;85.27;100553.97;5016050;28;45351;-70
2021/11/29 10:59:09;;;;;;;;;20.75;18.25;;;;;3.85;84.75;100518.59;5014476;28;45416;-69
2021/11/29 11:01:46;;;;;;;;;27.75;25.00;;;;;4.14;85.15;100558.97;5013708;28;45382;-69
2021/11/29 11:04:25;;;;;;;;;25.25;17.25;;;;;4.20;84.97;100556.28;5017180;28;45522;-68
2021/11/29 11:07:02;;;;;;;;;22.75;22.25;;;;;4.27;84.79;100559.69;5017990;28;45489;-69
2021/11/29 11:09:28;;;;;;;;;29.00;22.75;;;;;4.35;85.11;100562.19;5018166;28;45232;-71
2021/11/29 11:12:00;;;;;;;;;29.00;28.25;;;;;4.44;84.77;100556.84;5018707;28;45274;-73
2021/11/29 11:14:38;;;;;;;;;15.75;14.50;;;;;4.56;84.66;100557.53;5018295;28;45579;-72
2021/11/29 11:17:04;;;;;;;;;26.25;20.25;;;;;4.62;84.17;100560.88;5015613;28;45372;-68
2021/11/29 11:19:40;;;;;;;;;18.50;17.75;;;;;4.63;83.85;100556.53;5016912;28;45374;-67
2021/11/29 11:22:09;;;;;;;;;21.00;17.00;;;;;4.68;84.56;100552.13;5015130;28;45201;-70
2021/11/29 11:24:37;;;;;;;;;19.25;15.75;;;;;4.76;84.34;100550.25;5014761;28;45537;-71